createdAt,value
2023-04-02T00:01:38.704Z,8.75
2023-04-02T00:04:09.762Z,8.74
2023-04-02T00:06:40.759Z,8.76
2023-04-02T00:08:51.300Z,8.78
2023-04-02T00:11:03.403Z,8.81
2023-04-02T00:13:27.448Z,8.79
2023-04-02T00:15:39.432Z,8.76
2023-04-02T00:17:49.793Z,8.74
2023-04-02T00:20:06.898Z,8.79
2023-04-02T00:22:22.762Z,8.86
2023-04-02T00:24:32.716Z,8.95
2023-04-02T00:26:46.282Z,9.07
2023-04-02T00:28:56.175Z,9.22
2023-04-02T00:31:06.182Z,9.34
2023-04-02T00:33:21.812Z,9.39
2023-04-02T00:35:33.137Z,9.38
2023-04-02T00:37:43.934Z,9.33
2023-04-02T00:39:57.733Z,9.20
2023-04-02T00:42:08.823Z,9.03
2023-04-02T00:44:22.503Z,8.86
2023-04-02T00:46:47.529Z,8.69
2023-04-02T00:49:03.284Z,8.57
2023-04-02T00:51:21.995Z,8.49
2023-04-02T00:53:33.573Z,8.43
2023-04-02T00:55:44.926Z,8.38
2023-04-02T00:57:57.023Z,8.37
2023-04-02T01:00:21.908Z,8.36
2023-04-02T01:02:36.087Z,8.34
2023-04-02T01:04:53.985Z,8.35
2023-04-02T01:07:07.003Z,8.38
2023-04-02T01:09:31.062Z,8.40
2023-04-02T01:11:56.140Z,8.41
2023-04-02T01:14:14.902Z,8.41
2023-04-02T01:16:36.922Z,8.41
2023-04-02T01:18:57.640Z,8.38
2023-04-02T01:21:34.773Z,8.33
2023-04-02T01:23:55.170Z,8.24
2023-04-02T01:26:15.220Z,8.18
2023-04-02T01:28:30.339Z,8.16
2023-04-02T01:30:42.200Z,8.10
2023-04-02T01:32:52.583Z,8.04
2023-04-02T01:35:03.163Z,8.01
2023-04-02T01:37:32.895Z,7.98
2023-04-02T01:39:56.288Z,7.95
2023-04-02T01:42:19.865Z,7.90
2023-04-02T01:44:37.951Z,7.87
2023-04-02T01:46:54.099Z,7.84
2023-04-02T01:49:13.849Z,7.79
2023-04-02T01:51:32.437Z,7.74
2023-04-02T01:53:47.239Z,7.69
2023-04-02T01:56:05.611Z,7.69
2023-04-02T01:58:21.277Z,7.69
2023-04-02T02:00:34.984Z,7.68
2023-04-02T02:02:52.484Z,7.66
2023-04-02T02:05:05.206Z,7.61
2023-04-02T02:07:24.145Z,7.54
2023-04-02T02:09:46.365Z,7.50
2023-04-02T02:12:08.368Z,7.47
2023-04-02T02:14:48.236Z,7.43
2023-04-02T02:17:01.009Z,7.43
2023-04-02T02:19:30.324Z,7.43
2023-04-02T02:21:48.046Z,7.42
2023-04-02T02:24:19.450Z,7.43
2023-04-02T02:26:31.940Z,7.43
2023-04-02T02:28:48.422Z,7.36
2023-04-02T02:31:04.453Z,7.26
2023-04-02T02:33:22.742Z,7.14
2023-04-02T02:35:40.342Z,7.04
2023-04-02T02:37:57.632Z,6.97
2023-04-02T02:40:14.801Z,6.91
2023-04-02T02:42:30.691Z,6.87
2023-04-02T02:44:47.627Z,6.82
2023-04-02T02:47:02.768Z,6.77
2023-04-02T02:49:18.709Z,6.72
2023-04-02T02:51:32.769Z,6.68
2023-04-02T02:53:52.229Z,6.66
2023-04-02T02:56:04.608Z,6.65
2023-04-02T02:58:24.087Z,6.65
2023-04-02T03:00:44.449Z,6.64
2023-04-02T03:02:57.454Z,6.61
2023-04-02T03:05:11.537Z,6.59
2023-04-02T03:07:26.183Z,6.59
2023-04-02T03:09:47.895Z,6.57
2023-04-02T03:12:04.730Z,6.55
2023-04-02T03:14:24.913Z,6.53
2023-04-02T03:16:41.793Z,6.52
2023-04-02T03:18:56.650Z,6.51
2023-04-02T03:21:14.668Z,6.50
2023-04-02T03:23:29.496Z,6.50
2023-04-02T03:25:46.964Z,6.49
2023-04-02T03:28:04.135Z,6.48
2023-04-02T03:30:29.428Z,6.46
2023-04-02T03:32:44.406Z,6.48
2023-04-02T03:34:57.681Z,6.52
2023-04-02T03:37:16.529Z,6.56
2023-04-02T03:39:33.749Z,6.61
2023-04-02T03:41:46.877Z,6.66
2023-04-02T03:44:03.520Z,6.68
2023-04-02T03:46:17.714Z,6.69
2023-04-02T03:48:33.441Z,6.70
2023-04-02T03:50:50.150Z,6.73
2023-04-02T03:53:01.433Z,6.75
2023-04-02T03:55:18.496Z,6.75
2023-04-02T03:57:33.562Z,6.74
2023-04-02T03:59:52.208Z,6.76
2023-04-02T04:02:10.082Z,6.79
2023-04-02T04:04:22.301Z,6.80
2023-04-02T04:06:34.653Z,6.81
2023-04-02T04:08:47.016Z,6.80
2023-04-02T04:10:59.601Z,6.78
2023-04-02T04:13:09.400Z,6.77
2023-04-02T04:15:27.377Z,6.76
2023-04-02T04:17:50.425Z,6.75
2023-04-02T04:20:08.835Z,6.72
2023-04-02T04:22:33.399Z,6.69
2023-04-02T04:24:53.768Z,6.68
2023-04-02T04:27:10.539Z,6.68
2023-04-02T04:29:41.455Z,6.70
2023-04-02T04:31:55.987Z,6.71
2023-04-02T04:34:16.934Z,6.70
2023-04-02T04:36:31.044Z,6.73
2023-04-02T04:39:00.125Z,6.76
2023-04-02T04:41:18.500Z,6.80
2023-04-02T04:43:40.119Z,6.81
2023-04-02T04:45:55.186Z,6.83
2023-04-02T04:48:11.651Z,6.86
2023-04-02T04:50:31.741Z,6.88
2023-04-02T04:52:44.874Z,6.89
2023-04-02T04:54:56.964Z,6.90
2023-04-02T04:57:22.699Z,6.91
2023-04-02T04:59:37.097Z,6.94
2023-04-02T05:01:52.596Z,6.96
2023-04-02T05:04:11.691Z,6.98
2023-04-02T05:06:36.558Z,6.94
2023-04-02T05:08:51.294Z,6.82
2023-04-02T05:11:04.528Z,6.69
2023-04-02T05:13:22.957Z,6.59
2023-04-02T05:15:36.812Z,6.46
2023-04-02T05:17:54.183Z,6.36
2023-04-02T05:20:10.315Z,6.32
2023-04-02T05:22:29.684Z,6.29
2023-04-02T05:24:49.932Z,6.25
2023-04-02T05:27:03.035Z,6.24
2023-04-02T05:29:21.347Z,6.23
2023-04-02T05:31:40.154Z,6.23
2023-04-02T05:33:52.148Z,6.22
2023-04-02T05:36:06.465Z,6.22
2023-04-02T05:38:25.798Z,6.22
2023-04-02T05:40:39.699Z,6.25
2023-04-02T05:42:56.143Z,6.28
2023-04-02T05:45:20.263Z,6.33
2023-04-02T05:47:33.683Z,6.40
2023-04-02T05:49:51.391Z,6.46
2023-04-02T05:52:06.361Z,6.49
2023-04-02T05:54:26.599Z,6.49
2023-04-02T05:56:43.753Z,6.36
2023-04-02T05:58:59.156Z,6.22
2023-04-02T06:01:28.820Z,6.13
2023-04-02T06:03:49.884Z,6.05
2023-04-02T06:06:08.690Z,6.00
2023-04-02T06:08:24.377Z,5.98
2023-04-02T06:10:39.521Z,5.98
2023-04-02T06:12:54.104Z,6.00
2023-04-02T06:15:04.140Z,6.01
2023-04-02T06:17:17.813Z,6.03
2023-04-02T06:19:33.364Z,6.05
2023-04-02T06:21:50.871Z,6.07
2023-04-02T06:24:07.472Z,6.10
2023-04-02T06:26:24.799Z,6.13
2023-04-02T06:28:42.820Z,6.11
2023-04-02T06:30:55.176Z,6.03
2023-04-02T06:33:05.490Z,5.97
2023-04-02T06:35:19.454Z,5.91
2023-04-02T06:37:41.122Z,5.89
2023-04-02T06:39:56.807Z,5.89
2023-04-02T06:42:13.954Z,5.90
2023-04-02T06:44:42.853Z,5.91
2023-04-02T06:47:21.245Z,5.92
2023-04-02T06:49:41.281Z,5.94
2023-04-02T06:51:55.806Z,5.95
2023-04-02T06:54:06.146Z,5.95
2023-04-02T06:56:28.559Z,5.97
2023-04-02T06:58:38.402Z,5.99
2023-04-02T07:00:50.133Z,6.03
2023-04-02T07:03:10.770Z,6.04
2023-04-02T07:05:21.279Z,6.06
2023-04-02T07:07:31.189Z,6.07
2023-04-02T07:09:42.870Z,6.07
2023-04-02T07:11:53.746Z,6.06
2023-04-02T07:14:03.943Z,6.06
2023-04-02T07:16:18.983Z,6.06
2023-04-02T07:18:31.500Z,6.04
2023-04-02T07:20:43.513Z,6.05
2023-04-02T07:22:56.716Z,6.07
2023-04-02T07:25:06.983Z,6.10
2023-04-02T07:27:17.275Z,6.12
2023-04-02T07:29:27.187Z,6.13
2023-04-02T07:31:36.909Z,6.12
2023-04-02T07:33:47.268Z,6.11
2023-04-02T07:35:59.106Z,6.10
2023-04-02T07:38:08.846Z,6.09
2023-04-02T07:40:24.718Z,6.08
2023-04-02T07:42:34.419Z,6.08
2023-04-02T07:44:44.597Z,6.06
2023-04-02T07:46:54.506Z,6.06
2023-04-02T07:49:04.496Z,6.05
2023-04-02T07:51:22.219Z,6.03
2023-04-02T07:53:34.977Z,6.04
2023-04-02T07:55:44.989Z,6.05
2023-04-02T07:57:56.575Z,6.06
2023-04-02T08:00:08.880Z,6.09
2023-04-02T08:02:25.774Z,6.10
2023-04-02T08:04:35.901Z,6.10
2023-04-02T08:06:46.167Z,6.13
2023-04-02T08:08:56.597Z,6.16
2023-04-02T08:11:07.136Z,6.20
2023-04-02T08:13:16.600Z,6.20
2023-04-02T08:15:26.839Z,6.19
2023-04-02T08:17:37.006Z,6.20
2023-04-02T08:19:54.626Z,6.22
2023-04-02T08:22:05.029Z,6.24
2023-04-02T08:24:14.971Z,6.28
2023-04-02T08:26:24.606Z,6.30
2023-04-02T08:28:34.730Z,6.31
2023-04-02T08:30:45.445Z,6.32
2023-04-02T08:32:55.098Z,6.28
2023-04-02T08:35:05.315Z,6.19
2023-04-02T08:37:16.186Z,6.04
2023-04-02T08:39:29.875Z,5.90
2023-04-02T08:41:46.522Z,5.76
2023-04-02T08:44:13.370Z,5.66
2023-04-02T08:46:28.450Z,5.59
2023-04-02T08:48:42.743Z,5.56
2023-04-02T08:50:53.670Z,5.56
2023-04-02T08:53:04.934Z,5.56
2023-04-02T08:55:33.255Z,5.55
2023-04-02T08:57:49.580Z,5.52
2023-04-02T09:00:11.119Z,5.50
2023-04-02T09:02:33.627Z,5.44
2023-04-02T09:04:44.263Z,5.41
2023-04-02T09:06:57.123Z,5.40
2023-04-02T09:09:07.452Z,5.38
2023-04-02T09:11:26.453Z,5.37
2023-04-02T09:13:39.398Z,5.40
2023-04-02T09:15:46.901Z,5.46
2023-04-02T09:18:02.691Z,5.47
2023-04-02T09:20:19.741Z,5.42
2023-04-02T09:22:32.117Z,5.37
2023-04-02T09:24:41.876Z,5.35
2023-04-02T09:26:51.700Z,5.36
2023-04-02T09:29:21.994Z,5.38
2023-04-02T09:31:38.056Z,5.42
2023-04-02T09:33:49.770Z,5.44
2023-04-02T09:36:01.187Z,5.48
2023-04-02T09:38:22.718Z,5.52
2023-04-02T09:40:44.290Z,5.56
2023-04-02T09:43:07.666Z,5.60
2023-04-02T09:45:17.395Z,5.63
2023-04-02T09:47:29.895Z,5.64
2023-04-02T09:49:41.794Z,5.64
2023-04-02T09:52:11.318Z,5.66
2023-04-02T09:54:23.141Z,5.67
2023-04-02T09:56:33.729Z,5.70
2023-04-02T09:58:45.866Z,5.73
2023-04-02T10:00:56.758Z,5.77
2023-04-02T10:03:18.323Z,5.81
2023-04-02T10:05:39.953Z,5.85
2023-04-02T10:07:53.662Z,5.90
2023-04-02T10:10:07.175Z,5.92
2023-04-02T10:12:18.000Z,5.93
2023-04-02T10:14:31.509Z,5.96
2023-04-02T10:16:46.112Z,5.97
2023-04-02T10:18:59.402Z,5.95
2023-04-02T10:21:11.988Z,5.94
2023-04-02T10:23:24.569Z,5.93
2023-04-02T10:25:38.899Z,5.90
2023-04-02T10:27:55.549Z,5.86
2023-04-02T10:30:17.751Z,5.84
2023-04-02T10:32:32.900Z,5.77
2023-04-02T10:34:52.583Z,5.70
2023-04-02T10:37:11.682Z,5.63
2023-04-02T10:39:27.812Z,5.60
2023-04-02T10:41:44.463Z,5.57
2023-04-02T10:44:21.988Z,5.51
2023-04-02T10:46:38.692Z,5.47
2023-04-02T10:48:59.283Z,5.42
2023-04-02T10:51:16.124Z,5.39
2023-04-02T10:53:35.382Z,5.37
2023-04-02T10:55:50.512Z,5.35
2023-04-02T10:58:03.333Z,5.31
2023-04-02T11:00:22.903Z,5.29
2023-04-02T11:02:41.616Z,5.27
2023-04-02T11:04:54.852Z,5.24
2023-04-02T11:07:14.372Z,5.21
2023-04-02T11:09:28.401Z,5.20
2023-04-02T11:11:42.183Z,5.17
2023-04-02T11:13:58.425Z,5.16
2023-04-02T11:16:09.578Z,5.16
2023-04-02T11:18:36.294Z,5.16
2023-04-02T11:21:02.905Z,5.15
2023-04-02T11:23:19.197Z,5.13
2023-04-02T11:25:29.374Z,5.12
2023-04-02T11:27:39.834Z,5.12
2023-04-02T11:29:51.931Z,5.11
2023-04-02T11:32:31.203Z,5.09
2023-04-02T11:35:27.460Z,5.09
2023-04-02T11:37:41.583Z,5.08
2023-04-02T11:39:57.157Z,5.08
2023-04-02T11:42:23.973Z,5.08
2023-04-02T11:44:34.693Z,5.09
2023-04-02T11:46:51.252Z,5.10
2023-04-02T11:49:41.633Z,5.12
2023-04-02T11:52:09.120Z,5.13
2023-04-02T11:54:30.321Z,5.13
2023-04-02T11:56:46.751Z,5.13
2023-04-02T11:59:09.971Z,5.13
2023-04-02T12:01:56.257Z,5.13
2023-04-02T12:04:48.063Z,5.14
2023-04-02T12:07:18.356Z,5.17
2023-04-02T12:09:30.702Z,5.20
2023-04-02T12:11:42.491Z,5.22
2023-04-02T12:13:58.962Z,5.23
2023-04-02T12:16:11.077Z,5.25
2023-04-02T12:18:23.678Z,5.28
2023-04-02T12:20:35.113Z,5.30
2023-04-02T12:22:51.236Z,5.29
2023-04-02T12:25:04.893Z,5.28
2023-04-02T12:27:22.978Z,5.28
2023-04-02T12:29:33.882Z,5.29
2023-04-02T12:31:48.148Z,5.26
2023-04-02T12:33:58.078Z,5.23
2023-04-02T12:36:10.482Z,5.18
2023-04-02T12:38:28.307Z,5.14
2023-04-02T12:40:38.184Z,5.09
2023-04-02T12:42:48.432Z,5.06
2023-04-02T12:44:59.087Z,5.07
2023-04-02T12:47:09.645Z,5.08
2023-04-02T12:49:29.781Z,5.10
2023-04-02T12:51:40.187Z,5.12
2023-04-02T12:53:54.537Z,5.14
2023-04-02T12:56:04.988Z,5.16
2023-04-02T12:58:32.617Z,5.16
2023-04-02T13:00:43.693Z,5.15
2023-04-02T13:03:01.652Z,5.13
2023-04-02T13:05:13.348Z,5.12
2023-04-02T13:07:25.882Z,5.12
2023-04-02T13:09:37.590Z,5.11
2023-04-02T13:11:47.461Z,5.08
2023-04-02T13:14:03.128Z,5.07
2023-04-02T13:16:30.784Z,5.05
2023-04-02T13:18:42.070Z,5.01
2023-04-02T13:21:01.022Z,4.97
2023-04-02T13:23:33.039Z,4.92
2023-04-02T13:25:43.923Z,4.90
2023-04-02T13:27:54.317Z,4.89
2023-04-02T13:30:22.356Z,4.87
2023-04-02T13:32:32.525Z,4.86
2023-04-02T13:34:42.586Z,4.84
2023-04-02T13:36:52.562Z,4.82
2023-04-02T13:39:02.555Z,4.80
2023-04-02T13:41:21.561Z,4.78
2023-04-02T13:43:31.501Z,4.74
2023-04-02T13:45:43.937Z,4.73
2023-04-02T13:47:54.189Z,4.72
2023-04-02T13:50:03.979Z,4.71
2023-04-02T13:52:19.011Z,4.67
2023-04-02T13:54:35.156Z,4.66
2023-04-02T13:56:44.896Z,4.66
2023-04-02T13:58:54.932Z,4.66
2023-04-02T14:01:05.410Z,4.62
2023-04-02T14:03:20.314Z,4.56
2023-04-02T14:05:39.681Z,4.54
2023-04-02T14:07:59.262Z,4.52
2023-04-02T14:10:22.145Z,4.49
2023-04-02T14:12:53.904Z,4.46
2023-04-02T14:15:22.390Z,4.46
2023-04-02T14:17:48.283Z,4.48
2023-04-02T14:20:14.233Z,4.47
2023-04-02T14:22:39.121Z,4.47
2023-04-02T14:24:59.194Z,4.46
2023-04-02T14:27:24.763Z,4.43
2023-04-02T14:29:40.218Z,4.41
2023-04-02T14:31:57.705Z,4.39
2023-04-02T14:34:18.801Z,4.38
2023-04-02T14:36:37.321Z,4.37
2023-04-02T14:38:57.511Z,4.37
2023-04-02T14:41:13.342Z,4.38
2023-04-02T14:43:28.156Z,4.38
2023-04-02T14:45:50.772Z,4.38
2023-04-02T14:48:07.828Z,4.34
2023-04-02T14:50:21.928Z,4.30
2023-04-02T14:52:35.337Z,4.15
2023-04-02T14:54:52.459Z,3.96
2023-04-02T14:57:07.278Z,3.84
2023-04-02T14:59:29.421Z,3.83
2023-04-02T15:01:43.871Z,3.85
2023-04-02T15:04:00.293Z,3.91
2023-04-02T15:06:14.057Z,3.96
2023-04-02T15:08:28.151Z,4.03
2023-04-02T15:10:43.538Z,4.10
2023-04-02T15:12:56.161Z,4.14
2023-04-02T15:15:17.956Z,4.19
2023-04-02T15:17:31.501Z,4.22
2023-04-02T15:19:41.513Z,4.23
2023-04-02T15:22:21.083Z,4.25
2023-04-02T15:24:39.448Z,4.28
2023-04-02T15:26:59.820Z,4.30
2023-04-02T15:29:28.791Z,4.33
2023-04-02T15:31:47.936Z,4.35
2023-04-02T15:34:08.573Z,4.37
2023-04-02T15:36:43.990Z,4.38
2023-04-02T15:39:02.922Z,4.40
2023-04-02T15:41:23.808Z,4.42
2023-04-02T15:43:41.478Z,4.44
2023-04-02T15:46:00.185Z,4.47
2023-04-02T15:48:40.670Z,4.52
2023-04-02T15:51:00.852Z,4.56
2023-04-02T15:53:22.750Z,4.59
2023-04-02T15:55:41.599Z,4.60
2023-04-02T15:58:07.651Z,4.60
2023-04-02T16:00:33.818Z,4.58
2023-04-02T16:03:19.250Z,4.58
2023-04-02T16:05:40.296Z,4.58
2023-04-02T16:08:02.703Z,4.59
2023-04-02T16:10:33.944Z,4.60
2023-04-02T16:12:52.411Z,4.63
2023-04-02T16:15:13.261Z,4.67
2023-04-02T16:17:33.011Z,4.70
2023-04-02T16:19:50.544Z,4.73
2023-04-02T16:22:07.298Z,4.76
2023-04-02T16:24:17.266Z,4.78
2023-04-02T16:26:40.630Z,4.80
2023-04-02T16:29:03.326Z,4.78
2023-04-02T16:31:19.300Z,4.78
2023-04-02T16:33:38.835Z,4.83
2023-04-02T16:35:57.533Z,4.87
2023-04-02T16:38:17.430Z,4.90
2023-04-02T16:40:38.981Z,4.92
2023-04-02T16:42:57.026Z,4.94
2023-04-02T16:45:26.638Z,4.97
2023-04-02T16:47:55.760Z,4.99
2023-04-02T16:50:14.767Z,5.07
2023-04-02T16:52:36.301Z,5.14
2023-04-02T16:54:51.852Z,5.21
2023-04-02T16:57:17.511Z,5.24
2023-04-02T16:59:36.272Z,5.26
2023-04-02T17:01:55.237Z,5.29
2023-04-02T17:04:28.462Z,5.33
2023-04-02T17:06:45.509Z,5.36
2023-04-02T17:09:02.380Z,5.38
2023-04-02T17:11:18.362Z,5.32
2023-04-02T17:13:36.734Z,5.21
2023-04-02T17:15:52.830Z,4.99
2023-04-02T17:18:03.992Z,4.74
2023-04-02T17:20:20.382Z,4.56
2023-04-02T17:22:33.753Z,4.44
2023-04-02T17:24:49.885Z,4.36
2023-04-02T17:27:05.867Z,4.26
2023-04-02T17:29:21.569Z,4.16
2023-04-02T17:31:36.349Z,4.10
2023-04-02T17:33:46.292Z,4.08
2023-04-02T17:36:07.163Z,4.07
2023-04-02T17:38:24.611Z,4.08
2023-04-02T17:40:41.241Z,4.10
2023-04-02T17:43:01.577Z,4.17
2023-04-02T17:45:21.474Z,4.24
2023-04-02T17:47:38.336Z,4.31
2023-04-02T17:49:57.478Z,4.40
2023-04-02T17:52:16.350Z,4.50
2023-04-02T17:54:43.167Z,4.56
2023-04-02T17:57:14.999Z,4.61
2023-04-02T17:59:38.191Z,4.67
2023-04-02T18:01:52.972Z,4.73
2023-04-02T18:04:20.975Z,4.82
2023-04-02T18:06:39.621Z,4.90
2023-04-02T18:09:04.727Z,4.93
2023-04-02T18:11:24.094Z,4.97
2023-04-02T18:13:38.440Z,4.98
2023-04-02T18:15:58.106Z,5.00
2023-04-02T18:18:17.370Z,5.00
2023-04-02T18:20:35.535Z,4.96
2023-04-02T18:22:52.394Z,4.76
2023-04-02T18:25:32.796Z,4.63
2023-04-02T18:27:58.287Z,4.58
2023-04-02T18:30:17.821Z,4.61
2023-04-02T18:32:41.832Z,4.75
2023-04-02T18:35:04.739Z,4.95
2023-04-02T18:37:25.552Z,5.15
2023-04-02T18:39:45.237Z,5.29
2023-04-02T18:42:02.348Z,5.41
2023-04-02T18:44:29.232Z,5.52
2023-04-02T18:46:47.640Z,5.68
2023-04-02T18:49:01.384Z,5.81
2023-04-02T18:51:16.476Z,5.94
2023-04-02T18:53:28.464Z,6.08
2023-04-02T18:55:39.195Z,6.18
2023-04-02T18:57:51.860Z,6.24
2023-04-02T19:00:04.876Z,6.29
2023-04-02T19:02:39.177Z,6.40
2023-04-02T19:04:55.449Z,6.58
2023-04-02T19:07:13.897Z,6.73
2023-04-02T19:09:29.509Z,6.81
2023-04-02T19:11:39.605Z,6.90
2023-04-02T19:13:51.801Z,6.98
2023-04-02T19:16:17.470Z,6.98
2023-04-02T19:18:40.470Z,6.96
2023-04-02T19:20:55.488Z,6.95
2023-04-02T19:23:20.282Z,7.07
2023-04-02T19:25:46.999Z,7.21
2023-04-02T19:28:11.141Z,7.41
2023-04-02T19:30:39.678Z,7.61
2023-04-02T19:32:59.464Z,7.77
2023-04-02T19:35:19.170Z,7.95
2023-04-02T19:37:37.835Z,8.02
2023-04-02T19:40:09.140Z,8.07
2023-04-02T19:42:28.038Z,8.17
2023-04-02T19:44:39.828Z,8.30
2023-04-02T19:46:51.856Z,8.32
2023-04-02T19:49:03.729Z,8.33
2023-04-02T19:51:13.894Z,8.32
2023-04-02T19:53:24.430Z,8.40
2023-04-02T19:55:36.490Z,8.52
2023-04-02T19:57:46.610Z,8.56
2023-04-02T19:59:57.112Z,8.56
2023-04-02T20:02:10.762Z,8.57
2023-04-02T20:04:21.810Z,8.54
2023-04-02T20:06:32.101Z,8.51
2023-04-02T20:08:42.439Z,8.38
2023-04-02T20:10:52.355Z,8.22
2023-04-02T20:13:01.953Z,8.11
2023-04-02T20:15:13.821Z,8.04
2023-04-02T20:17:24.255Z,7.94
2023-04-02T20:19:34.214Z,7.89
2023-04-02T20:21:44.023Z,7.89
2023-04-02T20:23:56.916Z,7.94
2023-04-02T20:26:07.641Z,7.98
2023-04-02T20:28:17.365Z,8.02
2023-04-02T20:30:30.103Z,7.92
2023-04-02T20:32:41.032Z,7.69
2023-04-02T20:34:51.100Z,7.48
2023-04-02T20:37:00.936Z,7.36
2023-04-02T20:39:12.414Z,7.32
2023-04-02T20:41:23.796Z,7.35
2023-04-02T20:43:33.894Z,7.48
2023-04-02T20:45:43.996Z,7.63
2023-04-02T20:47:54.005Z,7.84
2023-04-02T20:50:04.576Z,8.01
2023-04-02T20:52:14.297Z,8.04
2023-04-02T20:54:24.515Z,8.09
2023-04-02T20:56:35.166Z,8.17
2023-04-02T20:58:45.830Z,8.23
2023-04-02T21:00:55.417Z,8.34
2023-04-02T21:03:06.011Z,8.49
2023-04-02T21:05:16.299Z,8.62
2023-04-02T21:07:26.637Z,8.77
2023-04-02T21:09:36.426Z,8.82
2023-04-02T21:11:46.869Z,8.84
2023-04-02T21:13:56.978Z,8.91
2023-04-02T21:16:13.367Z,8.99
2023-04-02T21:18:23.532Z,8.95
2023-04-02T21:20:33.833Z,8.63
2023-04-02T21:22:43.616Z,8.28
2023-04-02T21:24:53.522Z,7.93
2023-04-02T21:27:03.011Z,7.64
2023-04-02T21:29:15.080Z,7.43
2023-04-02T21:31:26.395Z,7.27
2023-04-02T21:33:40.279Z,7.13
2023-04-02T21:35:51.034Z,7.03
2023-04-02T21:38:00.809Z,6.87
2023-04-02T21:40:12.717Z,6.58
2023-04-02T21:42:22.837Z,6.29
2023-04-02T21:44:32.681Z,6.12
2023-04-02T21:46:43.626Z,6.01
2023-04-02T21:48:54.988Z,5.88
2023-04-02T21:51:11.648Z,5.89
2023-04-02T21:53:21.367Z,6.03
2023-04-02T21:55:30.831Z,6.24
2023-04-02T21:57:41.454Z,6.51
2023-04-02T21:59:51.329Z,6.75
2023-04-02T22:02:01.834Z,6.88
2023-04-02T22:04:14.533Z,6.92
2023-04-02T22:06:25.474Z,6.99
2023-04-02T22:08:35.901Z,7.12
2023-04-02T22:10:46.320Z,7.28
2023-04-02T22:12:56.171Z,7.53
2023-04-02T22:15:06.049Z,7.62
2023-04-02T22:17:18.361Z,7.64
2023-04-02T22:19:28.754Z,7.66
2023-04-02T22:21:39.622Z,7.74
2023-04-02T22:23:51.905Z,7.79
2023-04-02T22:26:03.719Z,7.90
2023-04-02T22:28:14.133Z,7.95
2023-04-02T22:30:27.198Z,7.92
2023-04-02T22:32:37.226Z,7.93
2023-04-02T22:34:47.259Z,7.99
2023-04-02T22:36:58.138Z,8.10
2023-04-02T22:39:11.088Z,8.15
2023-04-02T22:41:22.678Z,8.27
2023-04-02T22:43:33.190Z,8.36
2023-04-02T22:45:46.311Z,8.47
2023-04-02T22:47:56.093Z,8.59
2023-04-02T22:50:06.396Z,8.77
2023-04-02T22:52:16.434Z,8.92
2023-04-02T22:54:26.336Z,9.00
2023-04-02T22:56:38.065Z,9.08
2023-04-02T22:58:48.015Z,9.14
2023-04-02T23:00:57.647Z,9.22
2023-04-02T23:03:07.879Z,9.36
2023-04-02T23:05:17.720Z,9.39
2023-04-02T23:07:27.760Z,9.38
2023-04-02T23:09:37.551Z,9.28
2023-04-02T23:11:47.585Z,9.09
2023-04-02T23:14:00.040Z,8.87
2023-04-02T23:16:09.562Z,8.61
2023-04-02T23:18:20.106Z,8.34
2023-04-02T23:20:30.432Z,7.99
2023-04-02T23:22:41.631Z,7.54
2023-04-02T23:24:54.982Z,7.23
2023-04-02T23:27:04.701Z,7.00
2023-04-02T23:29:14.660Z,6.93
2023-04-02T23:31:25.843Z,7.00
2023-04-02T23:33:36.519Z,7.22
2023-04-02T23:35:46.778Z,7.38
2023-04-02T23:37:57.523Z,7.57
2023-04-02T23:40:09.302Z,7.60
2023-04-02T23:42:19.211Z,7.53
2023-04-02T23:44:29.147Z,7.58
2023-04-02T23:46:40.358Z,7.53
2023-04-02T23:48:51.014Z,7.51
2023-04-02T23:51:01.144Z,7.60
2023-04-02T23:53:11.660Z,7.52
2023-04-02T23:55:22.259Z,7.51
2023-04-02T23:57:32.294Z,7.58
2023-04-02T23:59:42.150Z,7.66
